TimePDT,TemperatureF,Dew PointF,Humidity,Sea Level PressureIn,VisibilityMPH,Wind Direction,Wind SpeedMPH,Gust SpeedMPH,PrecipitationIn,Events,Conditions,WindDirDegrees,DateUTC
12:15 AM,48.2,17.6,30,30.30,10.0,West,13.8,-,N/A,,Clear,270,2013-06-01 07:15:00
12:35 AM,46.4,17.6,32,30.30,10.0,West,10.4,-,N/A,,Clear,280,2013-06-01 07:35:00
12:55 AM,46.4,17.6,32,30.30,10.0,West,11.5,-,N/A,,Clear,280,2013-06-01 07:55:00
1:15 AM,46.4,17.6,32,30.30,10.0,West,9.2,-,N/A,,Clear,280,2013-06-01 08:15:00
1:35 AM,48.2,17.6,30,30.29,10.0,West,10.4,-,N/A,,Clear,270,2013-06-01 08:35:00
1:55 AM,46.4,19.4,34,30.29,10.0,West,10.4,-,N/A,,Clear,280,2013-06-01 08:55:00
2:15 AM,42.8,19.4,39,30.29,10.0,NNW,4.6,-,N/A,,Clear,330,2013-06-01 09:15:00
2:35 AM,44.6,19.4,37,30.29,10.0,West,9.2,-,N/A,,Clear,280,2013-06-01 09:35:00
2:55 AM,42.8,17.6,36,30.28,10.0,West,11.5,-,N/A,,Clear,270,2013-06-01 09:55:00
3:15 AM,44.6,17.6,34,30.28,10.0,WNW,5.8,-,N/A,,Clear,290,2013-06-01 10:15:00
3:35 AM,42.8,17.6,36,30.28,10.0,NW,3.5,-,N/A,,Clear,310,2013-06-01 10:35:00
3:55 AM,42.8,17.6,36,30.28,10.0,West,6.9,-,N/A,,Clear,270,2013-06-01 10:55:00
4:15 AM,41.0,17.6,39,30.28,10.0,WNW,3.5,-,N/A,,Clear,300,2013-06-01 11:15:00
4:35 AM,42.8,19.4,39,30.28,10.0,NNW,5.8,-,N/A,,Clear,330,2013-06-01 11:35:00
4:55 AM,41.0,19.4,42,30.28,10.0,NNW,5.8,-,N/A,,Clear,340,2013-06-01 11:55:00
5:15 AM,41.0,19.4,42,30.28,10.0,NW,4.6,-,N/A,,Clear,320,2013-06-01 12:15:00
5:35 AM,39.2,19.4,45,30.28,10.0,North,4.6,-,N/A,,Clear,360,2013-06-01 12:35:00
5:55 AM,39.2,19.4,45,30.28,10.0,NW,4.6,-,N/A,,Clear,310,2013-06-01 12:55:00
6:15 AM,41.0,19.4,42,30.28,10.0,NNW,3.5,-,N/A,,Clear,330,2013-06-01 13:15:00
6:35 AM,44.6,21.2,39,30.28,10.0,NNW,3.5,-,N/A,,Clear,330,2013-06-01 13:35:00
6:55 AM,48.2,21.2,34,30.28,10.0,NE,3.5,-,N/A,,Clear,40,2013-06-01 13:55:00
7:15 AM,50.0,23.0,35,30.28,10.0,North,3.5,-,N/A,,Clear,350,2013-06-01 14:15:00
7:35 AM,53.6,24.8,33,30.28,10.0,Calm,Calm,-,N/A,,Clear,0,2013-06-01 14:35:00
7:55 AM,57.2,24.8,29,30.28,10.0,Calm,Calm,-,N/A,,Clear,0,2013-06-01 14:55:00
8:15 AM,59.0,24.8,27,30.28,10.0,SE,5.8,-,N/A,,Clear,130,2013-06-01 15:15:00
8:35 AM,59.0,24.8,27,30.28,10.0,SE,5.8,-,N/A,,Clear,130,2013-06-01 15:35:00
8:55 AM,62.6,24.8,24,30.28,10.0,SE,5.8,-,N/A,,Clear,140,2013-06-01 15:55:00
9:15 AM,66.2,21.2,18,30.27,10.0,Calm,Calm,-,N/A,,Clear,0,2013-06-01 16:15:00
9:35 AM,68.0,19.4,16,30.27,10.0,Calm,Calm,-,N/A,,Clear,0,2013-06-01 16:35:00
9:55 AM,69.8,15.8,13,30.27,10.0,SSE,4.6,-,N/A,,Clear,160,2013-06-01 16:55:00
10:15 AM,69.8,15.8,13,30.26,10.0,ESE,5.8,-,N/A,,Clear,110,2013-06-01 17:15:00
10:35 AM,71.6,14.0,11,30.26,10.0,South,3.5,-,N/A,,Clear,180,2013-06-01 17:35:00
10:55 AM,73.4,15.8,11,30.25,10.0,ESE,6.9,-,N/A,,Clear,120,2013-06-01 17:55:00
11:15 AM,73.4,17.6,12,30.25,10.0,ESE,6.9,-,N/A,,Clear,120,2013-06-01 18:15:00
11:35 AM,75.2,19.4,12,30.24,10.0,East,8.1,-,N/A,,Clear,100,2013-06-01 18:35:00
11:55 AM,75.2,19.4,12,30.24,10.0,SSE,6.9,-,N/A,,Clear,150,2013-06-01 18:55:00
12:15 PM,77.0,21.2,12,30.23,10.0,South,8.1,-,N/A,,Clear,190,2013-06-01 19:15:00
12:35 PM,77.0,21.2,12,30.22,10.0,SE,6.9,-,N/A,,Clear,140,2013-06-01 19:35:00
12:55 PM,78.8,21.2,12,30.21,10.0,ESE,10.4,17.3,N/A,,Clear,120,2013-06-01 19:55:00
1:15 PM,80.6,23.0,12,30.20,10.0,East,3.5,17.3,N/A,,Clear,100,2013-06-01 20:15:00
1:35 PM,80.6,23.0,12,30.19,10.0,Calm,Calm,-,N/A,,Clear,0,2013-06-01 20:35:00
1:55 PM,80.6,24.8,13,30.19,10.0,West,9.2,24.2,N/A,,Clear,260,2013-06-01 20:55:00
2:15 PM,80.6,24.8,13,30.18,10.0,West,16.1,23.0,N/A,,Clear,280,2013-06-01 21:15:00
2:35 PM,80.6,24.8,13,30.18,10.0,WSW,12.7,21.9,N/A,,Clear,250,2013-06-01 21:35:00
2:55 PM,80.6,23.0,12,30.17,10.0,West,15.0,26.5,N/A,,Clear,260,2013-06-01 21:55:00
3:15 PM,80.6,24.8,13,30.17,10.0,West,20.7,25.3,N/A,,Clear,280,2013-06-01 22:15:00
3:35 PM,80.6,24.8,13,30.17,10.0,West,15.0,27.6,N/A,,Clear,280,2013-06-01 22:35:00
3:55 PM,80.6,24.8,13,30.16,10.0,West,15.0,24.2,N/A,,Clear,270,2013-06-01 22:55:00
4:15 PM,80.6,23.0,12,30.16,10.0,West,17.3,25.3,N/A,,Clear,270,2013-06-01 23:15:00
4:35 PM,80.6,23.0,12,30.16,10.0,West,17.3,23.0,N/A,,Clear,260,2013-06-01 23:35:00
4:55 PM,78.8,24.8,14,30.16,10.0,West,15.0,24.2,N/A,,Clear,260,2013-06-01 23:55:00
5:15 PM,78.8,24.8,14,30.16,10.0,WSW,12.7,-,N/A,,Clear,250,2013-06-02 00:15:00
5:35 PM,78.8,24.8,14,30.15,10.0,WSW,12.7,23.0,N/A,,Clear,240,2013-06-02 00:35:00
5:55 PM,77.0,24.8,14,30.15,10.0,SW,8.1,25.3,N/A,,Clear,230,2013-06-02 00:55:00
6:15 PM,77.0,24.8,14,30.14,10.0,SW,12.7,25.3,N/A,,Clear,230,2013-06-02 01:15:00
6:35 PM,75.2,24.8,15,30.14,10.0,SW,15.0,23.0,N/A,,Clear,220,2013-06-02 01:35:00
6:55 PM,75.2,24.8,15,30.14,10.0,SSW,15.0,23.0,N/A,,Clear,210,2013-06-02 01:55:00
7:15 PM,73.4,24.8,16,30.15,10.0,SW,11.5,21.9,N/A,,Clear,230,2013-06-02 02:15:00
7:35 PM,71.6,24.8,17,30.15,10.0,SW,12.7,20.7,N/A,,Clear,230,2013-06-02 02:35:00
7:55 PM,69.8,24.8,18,30.16,10.0,WSW,4.6,-,N/A,,Clear,250,2013-06-02 02:55:00
8:15 PM,68.0,26.6,21,30.16,10.0,WNW,9.2,-,N/A,,Clear,290,2013-06-02 03:15:00
8:35 PM,66.2,26.6,23,30.16,10.0,NNW,3.5,-,N/A,,Clear,340,2013-06-02 03:35:00
8:55 PM,64.4,26.6,24,30.16,10.0,Calm,Calm,-,N/A,,Clear,0,2013-06-02 03:55:00
9:15 PM,62.6,26.6,26,30.16,10.0,Calm,Calm,-,N/A,,Clear,0,2013-06-02 04:15:00
9:35 PM,64.4,26.6,24,30.16,10.0,WSW,6.9,-,N/A,,Clear,240,2013-06-02 04:35:00
9:55 PM,62.6,28.4,27,30.17,10.0,East,5.8,-,N/A,,Clear,100,2013-06-02 04:55:00
10:15 PM,60.8,30.2,31,30.17,10.0,East,5.8,-,N/A,,Clear,90,2013-06-02 05:15:00
10:35 PM,59.0,28.4,31,30.17,10.0,East,4.6,-,N/A,,Clear,90,2013-06-02 05:35:00
10:55 PM,59.0,28.4,31,30.17,10.0,SSW,3.5,-,N/A,,Clear,210,2013-06-02 05:55:00
11:15 PM,57.2,28.4,33,30.17,10.0,Calm,Calm,-,N/A,,Clear,0,2013-06-02 06:15:00
11:35 PM,53.6,26.6,35,30.17,10.0,Calm,Calm,-,N/A,,Clear,0,2013-06-02 06:35:00
11:55 PM,51.8,26.6,38,30.17,10.0,Calm,Calm,-,N/A,,Clear,0,2013-06-02 06:55:00